Time;durP1;ratioP1;P1;durP2;ratioP2;P2;SDS_P1;SDS_P2;PMS_P1;PMS_P2;Temp;Humidity;BMP_temperature;BMP_pressure;BME280_temperature;BME280_humidity;BME280_pressure;Samples;Min_cycle;Max_cycle;Signal;HPM_P1;HPM_P2
2024/01/09 06:00:18;;;;;;;17.20;15.40;;;;;;;;;;1744344;28;20851;-75
2024/01/09 06:01:09;;;;;;;18.42;16.60;;;;;;;;;;1748191;28;20468;-75
2024/01/09 06:02:01;;;;;;;16.73;15.02;;;;;;;;;;1742178;28;20198;-75
2024/01/09 06:02:52;;;;;;;17.60;15.98;;;;;;;;;;1746476;28;20194;-71
2024/01/09 06:03:45;;;;;;;16.85;15.15;;;;;;;;;;1743749;28;20203;-75
2024/01/09 06:04:36;;;;;;;17.02;15.32;;;;;;;;;;1748230;28;20198;-75
2024/01/09 06:05:30;;;;;;;18.35;16.48;;;;;;;;;;1744131;28;20210;-75
2024/01/09 06:06:21;;;;;;;17.48;15.88;;;;;;;;;;1741245;28;20210;-75
2024/01/09 06:07:12;;;;;;;18.58;14.93;;;;;;;;;;1743872;28;20202;-75
2024/01/09 06:08:05;;;;;;;17.55;15.80;;;;;;;;;;1747976;28;20210;-76
2024/01/09 06:08:56;;;;;;;17.60;15.75;;;;;;;;;;1747045;28;20206;-76
2024/01/09 06:09:47;;;;;;;16.50;15.00;;;;;;;;;;1740868;28;20209;-76
2024/01/09 06:10:39;;;;;;;17.70;15.90;;;;;;;;;;1741309;28;20199;-75
2024/01/09 06:11:31;;;;;;;18.13;16.33;;;;;;;;;;1741232;28;20214;-76
2024/01/09 06:12:23;;;;;;;16.92;14.77;;;;;;;;;;1741235;28;20273;-76
2024/01/09 06:13:14;;;;;;;17.80;16.00;;;;;;;;;;1746469;28;20309;-76
2024/01/09 06:14:05;;;;;;;16.70;15.00;;;;;;;;;;1748167;28;20591;-75
2024/01/09 06:14:57;;;;;;;16.70;14.95;;;;;;;;;;1748029;28;20206;-76
2024/01/09 06:15:50;;;;;;;17.55;15.80;;;;;;;;;;1748182;28;20202;-76
2024/01/09 06:16:42;;;;;;;17.85;16.00;;;;;;;;;;1748009;28;20222;-75
2024/01/09 06:17:34;;;;;;;17.48;15.73;;;;;;;;;;1748106;28;20658;-75
2024/01/09 06:18:26;;;;;;;16.90;15.20;;;;;;;;;;1747161;28;20237;-75
2024/01/09 06:19:17;;;;;;;19.05;17.15;;;;;;;;;;1740823;28;20215;-75
2024/01/09 06:20:09;;;;;;;17.05;15.25;;;;;;;;;;1743858;28;20204;-75
2024/01/09 06:21:01;;;;;;;17.10;15.45;;;;;;;;;;1741697;28;20590;-76
2024/01/09 06:21:52;;;;;;;17.77;16.08;;;;;;;;;;1741454;28;20207;-76
2024/01/09 06:22:43;;;;;;;17.05;15.27;;;;;;;;;;1745934;28;20291;-75
2024/01/09 06:23:35;;;;;;;17.45;15.75;;;;;;;;;;1748125;28;20281;-76
2024/01/09 06:24:26;;;;;;;17.30;15.45;;;;;;;;;;1747985;28;20683;-75
2024/01/09 06:25:17;;;;;;;18.27;16.45;;;;;;;;;;1748082;28;20260;-75
2024/01/09 06:26:09;;;;;;;17.35;15.60;;;;;;;;;;1746368;28;20195;-76
2024/01/09 06:27:00;;;;;;;19.42;16.67;;;;;;;;;;1741249;28;20203;-75
2024/01/09 06:27:52;;;;;;;18.27;16.60;;;;;;;;;;1741395;28;20660;-75
2024/01/09 06:28:44;;;;;;;17.77;15.88;;;;;;;;;;1748049;28;20198;-75
2024/01/09 06:29:35;;;;;;;18.58;16.83;;;;;;;;;;1747755;28;20670;-75
2024/01/09 06:30:26;;;;;;;16.90;15.20;;;;;;;;;;1742336;28;20256;-75
2024/01/09 06:31:19;;;;;;;17.50;15.90;;;;;;;;;;1741239;28;20230;-76
2024/01/09 06:32:10;;;;;;;18.70;16.80;;;;;;;;;;1745317;28;20685;-75
2024/01/09 06:33:02;;;;;;;17.35;15.63;;;;;;;;;;1748038;28;20655;-76
2024/01/09 06:33:54;;;;;;;17.80;16.00;;;;;;;;;;1745274;28;20202;-75
2024/01/09 06:34:45;;;;;;;17.27;15.73;;;;;;;;;;1741088;28;20199;-75
2024/01/09 06:35:36;;;;;;;18.02;16.15;;;;;;;;;;1742270;28;20256;-75
2024/01/09 06:36:29;;;;;;;17.73;16.13;;;;;;;;;;1748047;28;20569;-75
2024/01/09 06:37:20;;;;;;;16.65;14.95;;;;;;;;;;1748020;28;20213;-77
2024/01/09 06:38:11;;;;;;;18.00;16.23;;;;;;;;;;1741380;28;20227;-76
2024/01/09 06:39:03;;;;;;;18.38;16.58;;;;;;;;;;1740937;28;20577;-76
2024/01/09 06:39:54;;;;;;;17.65;15.90;;;;;;;;;;1746208;28;20213;-77
2024/01/09 06:40:46;;;;;;;17.63;15.93;;;;;;;;;;1748211;28;20262;-77
2024/01/09 06:41:37;;;;;;;18.45;16.65;;;;;;;;;;1747823;28;20206;-77
2024/01/09 06:42:28;;;;;;;17.42;15.82;;;;;;;;;;1748545;28;20210;-76
2024/01/09 06:43:20;;;;;;;17.98;16.13;;;;;;;;;;1748095;28;20833;-76
2024/01/09 06:44:11;;;;;;;17.50;15.80;;;;;;;;;;1748603;28;20211;-76
2024/01/09 06:45:03;;;;;;;16.80;15.18;;;;;;;;;;1748003;28;20536;-77
2024/01/09 06:45:55;;;;;;;17.60;16.00;;;;;;;;;;1742508;28;20206;-78
2024/01/09 06:46:47;;;;;;;17.88;16.08;;;;;;;;;;1741576;28;20207;-77
2024/01/09 06:47:40;;;;;;;16.85;15.15;;;;;;;;;;1749601;28;20666;-78
2024/01/09 06:48:31;;;;;;;17.63;15.82;;;;;;;;;;1749487;28;20229;-76
2024/01/09 06:49:23;;;;;;;18.13;16.33;;;;;;;;;;1743261;28;20207;-77
2024/01/09 06:50:14;;;;;;;18.33;16.50;;;;;;;;;;1741166;28;20203;-76
2024/01/09 06:51:05;;;;;;;17.85;16.02;;;;;;;;;;1744126;28;20207;-75
2024/01/09 06:51:57;;;;;;;17.75;16.05;;;;;;;;;;1743328;28;20241;-75
2024/01/09 06:52:48;;;;;;;18.73;16.83;;;;;;;;;;1742680;28;20203;-76
2024/01/09 06:53:40;;;;;;;18.27;16.58;;;;;;;;;;1748036;28;20204;-75
2024/01/09 06:54:32;;;;;;;18.02;16.35;;;;;;;;;;1747992;28;20682;-75
2024/01/09 06:55:23;;;;;;;20.88;17.00;;;;;;;;;;1747962;28;20206;-76
2024/01/09 06:56:15;;;;;;;17.98;16.27;;;;;;;;;;1748003;28;20202;-75
2024/01/09 06:57:06;;;;;;;17.55;15.82;;;;;;;;;;1742274;28;20210;-76
2024/01/09 06:57:57;;;;;;;18.65;16.67;;;;;;;;;;1741118;28;20207;-75
2024/01/09 06:58:49;;;;;;;17.88;16.08;;;;;;;;;;1744964;28;20210;-75
2024/01/09 06:59:43;;;;;;;17.75;15.95;;;;;;;;;;1747621;28;20252;-76
2024/01/09 07:00:34;;;;;;;18.88;16.85;;;;;;;;;;1744947;28;20215;-76
2024/01/09 07:01:27;;;;;;;18.30;16.55;;;;;;;;;;1740902;28;20226;-76
2024/01/09 07:02:20;;;;;;;18.63;16.80;;;;;;;;;;1742269;28;20280;-76
2024/01/09 07:03:11;;;;;;;16.70;15.20;;;;;;;;;;1747944;28;20552;-76
2024/01/09 07:04:04;;;;;;;18.05;16.33;;;;;;;;;;1747857;28;20564;-76
2024/01/09 07:04:55;;;;;;;18.17;16.35;;;;;;;;;;1741020;28;20241;-75
2024/01/09 07:05:47;;;;;;;18.02;16.27;;;;;;;;;;1741988;28;20199;-75
2024/01/09 07:06:38;;;;;;;17.63;15.70;;;;;;;;;;1742148;28;20223;-75
2024/01/09 07:07:29;;;;;;;17.95;16.20;;;;;;;;;;1741032;28;20579;-75
2024/01/09 07:08:21;;;;;;;18.98;17.17;;;;;;;;;;1745061;28;20198;-75
2024/01/09 07:09:12;;;;;;;19.02;17.17;;;;;;;;;;1747614;28;20213;-75
2024/01/09 07:10:04;;;;;;;18.55;16.75;;;;;;;;;;1747835;28;20191;-75
2024/01/09 07:10:56;;;;;;;18.25;16.45;;;;;;;;;;1748006;28;20680;-76
2024/01/09 07:11:47;;;;;;;19.15;16.75;;;;;;;;;;1746815;28;20230;-75
2024/01/09 07:12:38;;;;;;;19.92;17.95;;;;;;;;;;1740984;28;20227;-75
2024/01/09 07:13:30;;;;;;;18.23;16.05;;;;;;;;;;1741021;28;20655;-75
2024/01/09 07:14:22;;;;;;;18.73;16.77;;;;;;;;;;1747620;28;20590;-76
2024/01/09 07:15:14;;;;;;;18.73;16.83;;;;;;;;;;1747849;28;20194;-75
2024/01/09 07:16:07;;;;;;;18.27;16.58;;;;;;;;;;1742706;28;20723;-75
2024/01/09 07:16:58;;;;;;;19.35;17.30;;;;;;;;;;1741019;28;21104;-75
2024/01/09 07:17:51;;;;;;;18.42;16.63;;;;;;;;;;1744550;28;20210;-75
2024/01/09 07:18:42;;;;;;;20.15;18.13;;;;;;;;;;1747808;28;20226;-76
2024/01/09 07:19:33;;;;;;;19.05;17.15;;;;;;;;;;1745175;28;20252;-75
2024/01/09 07:20:25;;;;;;;19.38;17.35;;;;;;;;;;1745610;28;20195;-76
2024/01/09 07:21:16;;;;;;;19.90;17.80;;;;;;;;;;1747121;28;20666;-75
2024/01/09 07:22:08;;;;;;;18.40;16.50;;;;;;;;;;1740821;28;20260;-75
2024/01/09 07:23:00;;;;;;;21.50;17.60;;;;;;;;;;1740972;28;20203;-75
2024/01/09 07:23:51;;;;;;;17.88;16.08;;;;;;;;;;1747311;28;20202;-75
2024/01/09 07:24:44;;;;;;;19.13;17.23;;;;;;;;;;1747928;28;20662;-76
2024/01/09 07:25:35;;;;;;;18.67;16.67;;;;;;;;;;1747830;28;20210;-75
2024/01/09 07:26:27;;;;;;;21.55;17.63;;;;;;;;;;1747799;28;20562;-75
2024/01/09 07:27:18;;;;;;;19.42;16.33;;;;;;;;;;1744642;28;20215;-76
2024/01/09 07:28:09;;;;;;;17.60;15.90;;;;;;;;;;1740940;28;20199;-75
2024/01/09 07:29:01;;;;;;;18.15;16.40;;;;;;;;;;1742292;28;20223;-74
2024/01/09 07:29:52;;;;;;;18.77;16.92;;;;;;;;;;1747805;28;20202;-75
2024/01/09 07:30:43;;;;;;;19.42;17.52;;;;;;;;;;1747730;28;20623;-75
2024/01/09 07:31:35;;;;;;;18.73;16.83;;;;;;;;;;1741008;28;20202;-75
2024/01/09 07:32:26;;;;;;;18.70;16.77;;;;;;;;;;1740875;28;20699;-75
2024/01/09 07:33:19;;;;;;;19.52;17.48;;;;;;;;;;1746513;28;20268;-76
2024/01/09 07:34:11;;;;;;;18.48;16.60;;;;;;;;;;1746101;28;20749;-75
2024/01/09 07:35:02;;;;;;;17.88;16.17;;;;;;;;;;1745093;28;20685;-76
2024/01/09 07:35:54;;;;;;;19.52;17.52;;;;;;;;;;1747863;28;20240;-76
2024/01/09 07:36:45;;;;;;;18.25;16.23;;;;;;;;;;1747784;28;20209;-75
2024/01/09 07:37:37;;;;;;;19.13;17.20;;;;;;;;;;1748173;28;20218;-76
2024/01/09 07:38:29;;;;;;;19.35;17.35;;;;;;;;;;1746521;28;20223;-76
2024/01/09 07:39:21;;;;;;;17.85;16.15;;;;;;;;;;1740573;28;20199;-76
2024/01/09 07:40:12;;;;;;;18.33;16.42;;;;;;;;;;1740967;28;20218;-76
2024/01/09 07:41:03;;;;;;;19.50;17.00;;;;;;;;;;1747658;28;20723;-75
2024/01/09 07:41:56;;;;;;;19.05;17.15;;;;;;;;;;1747830;28;20634;-75
2024/01/09 07:42:47;;;;;;;19.48;17.55;;;;;;;;;;1742461;28;20211;-76
2024/01/09 07:43:39;;;;;;;18.98;17.17;;;;;;;;;;1740955;28;20221;-75
2024/01/09 07:44:31;;;;;;;19.92;17.80;;;;;;;;;;1744606;28;20215;-76
2024/01/09 07:45:23;;;;;;;20.67;17.50;;;;;;;;;;1747835;28;20205;-75
2024/01/09 07:46:15;;;;;;;19.15;17.17;;;;;;;;;;1745420;28;20202;-76
2024/01/09 07:47:07;;;;;;;20.00;18.10;;;;;;;;;;1740904;28;20226;-75
2024/01/09 07:47:59;;;;;;;19.80;17.73;;;;;;;;;;1741838;28;20218;-76
2024/01/09 07:48:53;;;;;;;18.60;16.83;;;;;;;;;;1743037;28;20183;-76
2024/01/09 07:49:44;;;;;;;19.70;17.75;;;;;;;;;;1747348;28;20558;-75
2024/01/09 07:50:35;;;;;;;18.80;17.08;;;;;;;;;;1742114;28;20194;-76
2024/01/09 07:51:27;;;;;;;19.50;17.60;;;;;;;;;;1740985;28;20230;-75
2024/01/09 07:52:18;;;;;;;19.00;17.20;;;;;;;;;;1746030;28;20226;-75
2024/01/09 07:53:09;;;;;;;19.02;17.13;;;;;;;;;;1747784;28;20573;-76
2024/01/09 07:54:01;;;;;;;20.35;18.35;;;;;;;;;;1747861;28;20202;-75
2024/01/09 07:54:52;;;;;;;19.75;17.75;;;;;;;;;;1749140;28;20206;-75
2024/01/09 07:55:43;;;;;;;19.10;17.13;;;;;;;;;;1747026;28;20198;-76
2024/01/09 07:56:35;;;;;;;18.77;16.92;;;;;;;;;;1742141;28;20195;-76
2024/01/09 07:57:27;;;;;;;22.63;19.42;;;;;;;;;;1742642;28;20207;-75
2024/01/09 07:58:19;;;;;;;18.25;16.45;;;;;;;;;;1748942;28;20205;-75
2024/01/09 07:59:10;;;;;;;20.52;18.27;;;;;;;;;;1748704;28;20201;-75
2024/01/09 08:00:04;;;;;;;19.60;17.60;;;;;;;;;;1743085;28;20207;-76
2024/01/09 08:00:55;;;;;;;19.67;17.75;;;;;;;;;;1742161;28;20289;-75
2024/01/09 08:01:51;;;;;;;19.65;17.85;;;;;;;;;;1746834;28;20205;-75
2024/01/09 08:02:43;;;;;;;18.80;16.85;;;;;;;;;;1746046;28;20218;-76
2024/01/09 08:03:34;;;;;;;19.85;17.83;;;;;;;;;;1745905;28;20217;-75
2024/01/09 08:04:27;;;;;;;19.17;17.25;;;;;;;;;;1748920;28;20198;-76
2024/01/09 08:05:18;;;;;;;18.52;16.73;;;;;;;;;;1748936;28;20213;-76
2024/01/09 08:06:12;;;;;;;19.95;18.00;;;;;;;;;;1748961;28;20195;-75
2024/01/09 08:07:04;;;;;;;20.10;18.10;;;;;;;;;;1747707;28;20214;-76
2024/01/09 08:07:56;;;;;;;19.80;17.10;;;;;;;;;;1742054;28;20274;-76
2024/01/09 08:08:47;;;;;;;20.33;18.15;;;;;;;;;;1742056;28;20204;-75
2024/01/09 08:09:38;;;;;;;19.55;17.67;;;;;;;;;;1748478;28;20198;-75
2024/01/09 08:10:30;;;;;;;20.75;18.35;;;;;;;;;;1748977;28;20601;-75
2024/01/09 08:11:21;;;;;;;19.42;17.55;;;;;;;;;;1743671;28;20216;-75
2024/01/09 08:12:12;;;;;;;19.90;17.90;;;;;;;;;;1742079;28;20195;-76
2024/01/09 08:13:04;;;;;;;19.80;17.85;;;;;;;;;;1745553;28;20202;-76
2024/01/09 08:13:55;;;;;;;18.60;16.40;;;;;;;;;;1748956;28;20209;-76
2024/01/09 08:14:49;;;;;;;18.75;16.85;;;;;;;;;;1746825;28;20198;-75
2024/01/09 08:15:40;;;;;;;18.70;16.80;;;;;;;;;;1742090;28;20879;-75
2024/01/09 08:16:32;;;;;;;18.83;17.02;;;;;;;;;;1742761;28;20210;-75
2024/01/09 08:17:23;;;;;;;19.38;17.38;;;;;;;;;;1748337;28;20202;-76
2024/01/09 08:18:15;;;;;;;19.15;17.25;;;;;;;;;;1748909;28;20252;-75
2024/01/09 08:19:07;;;;;;;19.10;17.30;;;;;;;;;;1742025;28;20735;-76
2024/01/09 08:19:59;;;;;;;20.48;18.23;;;;;;;;;;1741999;28;20199;-75
2024/01/09 08:20:51;;;;;;;19.92;17.83;;;;;;;;;;1746868;28;20206;-75
2024/01/09 08:21:42;;;;;;;20.10;18.00;;;;;;;;;;1748843;28;20209;-75
2024/01/09 08:22:33;;;;;;;18.75;16.80;;;;;;;;;;1748820;28;20276;-76
2024/01/09 08:23:25;;;;;;;19.20;17.23;;;;;;;;;;1748790;28;20269;-75
2024/01/09 08:24:18;;;;;;;19.58;17.55;;;;;;;;;;1747011;28;20217;-76
2024/01/09 08:25:10;;;;;;;20.02;18.08;;;;;;;;;;1741943;28;20225;-76
2024/01/09 08:26:02;;;;;;;22.65;18.35;;;;;;;;;;1742469;28;20207;-76
2024/01/09 08:26:54;;;;;;;19.80;17.80;;;;;;;;;;1748954;28;20229;-75
2024/01/09 08:27:45;;;;;;;19.73;17.83;;;;;;;;;;1748854;28;20221;-75
2024/01/09 08:28:37;;;;;;;20.85;18.83;;;;;;;;;;1742826;28;20660;-76
2024/01/09 08:29:28;;;;;;;19.58;17.58;;;;;;;;;;1741544;28;20559;-75
2024/01/09 08:30:20;;;;;;;20.77;18.50;;;;;;;;;;1744151;28;20687;-76
2024/01/09 08:31:11;;;;;;;19.30;17.15;;;;;;;;;;1741987;28;20195;-75
2024/01/09 08:32:03;;;;;;;19.70;17.80;;;;;;;;;;1744744;28;20194;-76
2024/01/09 08:32:54;;;;;;;18.80;17.10;;;;;;;;;;1748866;28;20205;-75
2024/01/09 08:33:47;;;;;;;20.90;18.90;;;;;;;;;;1748663;28;20202;-75
2024/01/09 08:34:38;;;;;;;20.15;18.20;;;;;;;;;;1748847;28;20255;-75
2024/01/09 08:35:31;;;;;;;19.65;17.75;;;;;;;;;;1748701;28;20222;-76
2024/01/09 08:36:23;;;;;;;19.90;17.90;;;;;;;;;;1741877;28;20289;-75
2024/01/09 08:37:14;;;;;;;19.35;17.42;;;;;;;;;;1741970;28;20210;-76
2024/01/09 08:38:05;;;;;;;19.70;17.80;;;;;;;;;;1747597;28;20202;-76
2024/01/09 08:38:57;;;;;;;20.70;18.50;;;;;;;;;;1748683;28;20210;-75
2024/01/09 08:39:48;;;;;;;20.98;18.90;;;;;;;;;;1744142;28;20214;-75
2024/01/09 08:40:39;;;;;;;21.05;18.85;;;;;;;;;;1741916;28;20280;-76
2024/01/09 08:41:31;;;;;;;20.10;18.20;;;;;;;;;;1744408;28;20199;-75
2024/01/09 08:42:22;;;;;;;21.88;19.30;;;;;;;;;;1748633;28;20226;-75
2024/01/09 08:43:14;;;;;;;20.05;17.17;;;;;;;;;;1747734;28;20210;-76
2024/01/09 08:44:06;;;;;;;20.50;18.50;;;;;;;;;;1742546;28;20564;-75
2024/01/09 08:44:57;;;;;;;20.45;18.08;;;;;;;;;;1742939;28;20200;-75
2024/01/09 08:45:49;;;;;;;21.48;19.20;;;;;;;;;;1748346;28;20205;-76
2024/01/09 08:46:40;;;;;;;19.65;17.65;;;;;;;;;;1748816;28;20240;-75
2024/01/09 08:47:32;;;;;;;19.48;17.30;;;;;;;;;;1748679;28;20206;-75
2024/01/09 08:48:23;;;;;;;21.08;18.88;;;;;;;;;;1748748;28;20213;-76
2024/01/09 08:49:15;;;;;;;21.00;18.80;;;;;;;;;;1744865;28;20200;-75
2024/01/09 08:50:07;;;;;;;20.50;18.50;;;;;;;;;;1741835;28;20199;-75
2024/01/09 08:51:00;;;;;;;20.90;18.75;;;;;;;;;;1743877;28;20260;-75
2024/01/09 08:51:51;;;;;;;21.00;19.00;;;;;;;;;;1748716;28;20206;-76
2024/01/09 08:52:43;;;;;;;20.98;18.90;;;;;;;;;;1747995;28;20224;-75
2024/01/09 08:53:35;;;;;;;20.10;18.10;;;;;;;;;;1741837;28;20207;-76
2024/01/09 08:54:26;;;;;;;21.10;18.92;;;;;;;;;;1741764;28;20226;-75
2024/01/09 08:55:18;;;;;;;21.15;19.05;;;;;;;;;;1747985;28;20194;-75
2024/01/09 08:56:09;;;;;;;20.55;18.52;;;;;;;;;;1748691;28;20203;-76
2024/01/09 08:57:01;;;;;;;20.95;18.95;;;;;;;;;;1743920;28;20203;-75
2024/01/09 08:57:53;;;;;;;21.30;18.75;;;;;;;;;;1741739;28;20204;-75
2024/01/09 08:58:44;;;;;;;20.27;18.27;;;;;;;;;;1744858;28;20233;-76
2024/01/09 08:59:35;;;;;;;20.75;18.75;;;;;;;;;;1742966;28;20252;-75
2024/01/09 09:00:27;;;;;;;21.02;18.85;;;;;;;;;;1743178;28;20566;-75
2024/01/09 09:01:21;;;;;;;20.80;18.70;;;;;;;;;;1748665;28;20205;-76
2024/01/09 09:02:12;;;;;;;21.50;19.33;;;;;;;;;;1748596;28;20224;-76
2024/01/09 09:03:04;;;;;;;20.73;18.73;;;;;;;;;;1748598;28;20199;-75
2024/01/09 09:03:55;;;;;;;20.83;18.92;;;;;;;;;;1748608;28;20202;-75
2024/01/09 09:04:47;;;;;;;21.70;19.60;;;;;;;;;;1742620;28;20648;-75
2024/01/09 09:05:39;;;;;;;20.83;18.83;;;;;;;;;;1741084;28;20195;-76
2024/01/09 09:06:31;;;;;;;20.63;18.70;;;;;;;;;;1745826;28;20214;-75
2024/01/09 09:07:22;;;;;;;20.95;18.95;;;;;;;;;;1748605;28;20214;-75
2024/01/09 09:08:14;;;;;;;21.77;19.52;;;;;;;;;;1745699;28;20294;-75
2024/01/09 09:09:05;;;;;;;21.05;18.95;;;;;;;;;;1741321;28;20203;-74
2024/01/09 09:09:57;;;;;;;22.02;19.73;;;;;;;;;;1743215;28;20253;-76
2024/01/09 09:10:49;;;;;;;22.17;19.77;;;;;;;;;;1748544;28;20575;-76
2024/01/09 09:11:40;;;;;;;21.10;18.85;;;;;;;;;;1748642;28;20214;-75
2024/01/09 09:12:31;;;;;;;21.75;19.75;;;;;;;;;;1741577;28;20215;-75
2024/01/09 09:13:24;;;;;;;21.27;19.02;;;;;;;;;;1742929;28;20195;-76
2024/01/09 09:14:15;;;;;;;21.63;19.50;;;;;;;;;;1743131;28;20214;-76
2024/01/09 09:15:06;;;;;;;21.92;19.80;;;;;;;;;;1741604;28;20198;-75
2024/01/09 09:15:58;;;;;;;21.20;19.10;;;;;;;;;;1745402;28;20198;-75
2024/01/09 09:16:49;;;;;;;20.90;18.80;;;;;;;;;;1748501;28;20203;-75
2024/01/09 09:17:40;;;;;;;22.85;20.55;;;;;;;;;;1748366;28;20624;-75
2024/01/09 09:18:32;;;;;;;21.20;19.00;;;;;;;;;;1748498;28;20210;-75
2024/01/09 09:19:24;;;;;;;22.70;20.40;;;;;;;;;;1747377;28;20233;-76
2024/01/09 09:20:17;;;;;;;22.15;19.83;;;;;;;;;;1741942;28;20231;-75
2024/01/09 09:21:09;;;;;;;21.70;19.52;;;;;;;;;;1741847;28;20222;-75
2024/01/09 09:22:02;;;;;;;21.50;19.27;;;;;;;;;;1748182;28;20210;-75
2024/01/09 09:22:53;;;;;;;20.83;18.67;;;;;;;;;;1748497;28;20259;-75
2024/01/09 09:23:45;;;;;;;20.65;18.55;;;;;;;;;;1743261;28;20230;-75
2024/01/09 09:24:37;;;;;;;21.15;19.05;;;;;;;;;;1741564;28;20208;-75
2024/01/09 09:25:28;;;;;;;20.45;18.42;;;;;;;;;;1745210;28;20202;-75
2024/01/09 09:26:20;;;;;;;21.40;19.20;;;;;;;;;;1748488;28;20202;-75
2024/01/09 09:27:11;;;;;;;22.55;20.17;;;;;;;;;;1746312;28;20714;-75
2024/01/09 09:28:02;;;;;;;21.23;19.02;;;;;;;;;;1746737;28;20187;-75
2024/01/09 09:28:55;;;;;;;23.73;21.30;;;;;;;;;;1748017;28;20294;-75
2024/01/09 09:29:46;;;;;;;21.05;18.95;;;;;;;;;;1741188;28;20302;-76
2024/01/09 09:30:37;;;;;;;21.45;19.25;;;;;;;;;;1741562;28;20663;-75
2024/01/09 09:31:29;;;;;;;22.15;19.98;;;;;;;;;;1747506;28;20198;-75
2024/01/09 09:32:20;;;;;;;22.50;20.13;;;;;;;;;;1748391;28;21012;-75
2024/01/09 09:33:11;;;;;;;21.70;19.58;;;;;;;;;;1748399;28;20260;-76
2024/01/09 09:34:03;;;;;;;22.75;20.55;;;;;;;;;;1748427;28;20217;-76
2024/01/09 09:34:54;;;;;;;22.60;20.30;;;;;;;;;;1745362;28;20211;-75
2024/01/09 09:35:45;;;;;;;22.48;20.35;;;;;;;;;;1741532;28;20206;-75
2024/01/09 09:36:37;;;;;;;22.10;19.77;;;;;;;;;;1742871;28;20199;-75
2024/01/09 09:37:30;;;;;;;21.48;19.38;;;;;;;;;;1746596;28;20195;-76
2024/01/09 09:38:22;;;;;;;23.38;20.30;;;;;;;;;;1748392;28;20211;-75
2024/01/09 09:39:14;;;;;;;23.02;20.70;;;;;;;;;;1741074;28;20879;-75
2024/01/09 09:40:06;;;;;;;24.55;20.92;;;;;;;;;;1741568;28;20781;-75
2024/01/09 09:40:57;;;;;;;22.50;20.27;;;;;;;;;;1747202;28;20202;-75
2024/01/09 09:41:54;;;;;;;20.92;18.92;;;;;;;;;;1748320;28;20205;-75
2024/01/09 09:42:48;;;;;;;22.50;20.23;;;;;;;;;;1748294;28;20234;-75
2024/01/09 09:43:43;;;;;;;22.63;20.52;;;;;;;;;;1748408;28;20213;-75
2024/01/09 09:44:37;;;;;;;22.70;20.42;;;;;;;;;;1744106;28;20583;-75
2024/01/09 09:45:31;;;;;;;23.70;21.50;;;;;;;;;;1741461;28;20205;-76
2024/01/09 09:46:24;;;;;;;22.25;19.88;;;;;;;;;;1744714;28;20665;-76
2024/01/09 09:47:17;;;;;;;22.88;20.58;;;;;;;;;;1748229;28;20198;-75
2024/01/09 09:48:09;;;;;;;22.48;20.15;;;;;;;;;;1746145;28;20199;-75
2024/01/09 09:49:00;;;;;;;21.75;19.48;;;;;;;;;;1741320;28;20207;-75
2024/01/09 09:49:53;;;;;;;21.70;19.40;;;;;;;;;;1741838;28;20286;-74
2024/01/09 09:50:45;;;;;;;20.70;18.80;;;;;;;;;;1748328;28;20198;-75
2024/01/09 09:51:37;;;;;;;22.85;20.55;;;;;;;;;;1746588;28;20659;-76
2024/01/09 09:52:31;;;;;;;22.35;20.10;;;;;;;;;;1747700;28;20222;-75
2024/01/09 09:53:24;;;;;;;22.02;19.92;;;;;;;;;;1748356;28;20690;-75
2024/01/09 09:54:16;;;;;;;22.88;20.63;;;;;;;;;;1748188;28;20214;-75
2024/01/09 09:55:09;;;;;;;23.17;19.88;;;;;;;;;;1748335;28;20213;-75
2024/01/09 09:56:01;;;;;;;20.40;18.50;;;;;;;;;;1744089;28;20202;-75
2024/01/09 09:56:52;;;;;;;21.08;18.88;;;;;;;;;;1741539;28;20203;-75
2024/01/09 09:57:43;;;;;;;21.65;19.35;;;;;;;;;;1744046;28;20682;-75
2024/01/09 09:58:35;;;;;;;24.08;20.60;;;;;;;;;;1748275;28;20641;-75
2024/01/09 09:59:26;;;;;;;22.38;20.25;;;;;;;;;;1746635;28;20229;-75
2024/01/09 10:00:19;;;;;;;21.73;19.52;;;;;;;;;;1741396;28;20651;-76
2024/01/09 10:01:10;;;;;;;21.40;19.30;;;;;;;;;;1741364;28;20260;-75
2024/01/09 10:02:06;;;;;;;21.17;18.98;;;;;;;;;;1747868;28;20206;-75
2024/01/09 10:02:58;;;;;;;20.55;18.55;;;;;;;;;;1748238;28;20259;-75
2024/01/09 10:03:55;;;;;;;21.92;19.38;;;;;;;;;;1742377;28;20209;-75
2024/01/09 10:04:47;;;;;;;21.10;19.20;;;;;;;;;;1741349;28;20207;-75
2024/01/09 10:05:39;;;;;;;20.80;18.75;;;;;;;;;;1745793;28;20285;-76
2024/01/09 10:06:33;;;;;;;20.58;18.48;;;;;;;;;;1741281;28;20206;-75
2024/01/09 10:07:25;;;;;;;21.88;19.77;;;;;;;;;;1745120;28;20221;-75
2024/01/09 10:08:20;;;;;;;22.90;20.35;;;;;;;;;;1748158;28;20298;-75
2024/01/09 10:09:15;;;;;;;21.23;19.02;;;;;;;;;;1747785;28;20297;-75
2024/01/09 10:10:07;;;;;;;21.45;19.35;;;;;;;;;;1748255;28;20295;-75
2024/01/09 10:10:59;;;;;;;21.80;19.70;;;;;;;;;;1746208;28;20199;-75
2024/01/09 10:11:52;;;;;;;21.90;19.67;;;;;;;;;;1741260;28;20207;-75
2024/01/09 10:12:44;;;;;;;21.55;19.35;;;;;;;;;;1741822;28;20227;-75
2024/01/09 10:13:35;;;;;;;21.35;19.13;;;;;;;;;;1748188;28;20587;-76
2024/01/09 10:14:26;;;;;;;21.60;19.40;;;;;;;;;;1748123;28;20248;-76
2024/01/09 10:15:18;;;;;;;20.77;18.67;;;;;;;;;;1741945;28;20195;-75
2024/01/09 10:16:10;;;;;;;20.88;18.83;;;;;;;;;;1741301;28;20217;-75
2024/01/09 10:17:05;;;;;;;21.65;19.45;;;;;;;;;;1745652;28;20203;-75
2024/01/09 10:17:59;;;;;;;21.02;18.85;;;;;;;;;;1748137;28;20214;-76
2024/01/09 10:18:51;;;;;;;20.75;18.55;;;;;;;;;;1744157;28;20210;-75
2024/01/09 10:19:44;;;;;;;20.80;18.70;;;;;;;;;;1740793;28;20234;-76
2024/01/09 10:20:39;;;;;;;20.30;18.30;;;;;;;;;;1743954;28;20187;-75
2024/01/09 10:21:30;;;;;;;21.08;18.88;;;;;;;;;;1741249;28;20219;-75
2024/01/09 10:22:21;;;;;;;20.40;18.15;;;;;;;;;;1742618;28;20804;-75
2024/01/09 10:23:13;;;;;;;20.35;18.25;;;;;;;;;;1748061;28;20201;-75
2024/01/09 10:24:06;;;;;;;19.70;17.70;;;;;;;;;;1748024;28;20202;-74
2024/01/09 10:24:57;;;;;;;22.92;17.85;;;;;;;;;;1741261;28;20204;-76
2024/01/09 10:25:49;;;;;;;20.92;18.73;;;;;;;;;;1741206;28;20257;-75
2024/01/09 10:26:40;;;;;;;19.50;17.50;;;;;;;;;;1746893;28;20218;-75
2024/01/09 10:27:33;;;;;;;20.95;18.67;;;;;;;;;;1747145;28;20678;-76
2024/01/09 10:28:25;;;;;;;20.58;17.90;;;;;;;;;;1741153;28;20671;-76
2024/01/09 10:29:16;;;;;;;18.85;16.92;;;;;;;;;;1740800;28;20232;-76
2024/01/09 10:30:09;;;;;;;20.05;17.83;;;;;;;;;;1743887;28;20233;-76
2024/01/09 10:31:00;;;;;;;19.85;17.80;;;;;;;;;;1748080;28;20289;-75
2024/01/09 10:31:51;;;;;;;21.70;18.65;;;;;;;;;;1747967;28;20194;-76
2024/01/09 10:32:44;;;;;;;21.35;18.90;;;;;;;;;;1748015;28;20698;-75
2024/01/09 10:33:38;;;;;;;19.75;17.75;;;;;;;;;;1748016;28;20210;-76
2024/01/09 10:34:30;;;;;;;20.73;18.05;;;;;;;;;;1744209;28;20191;-76
2024/01/09 10:35:21;;;;;;;19.05;17.08;;;;;;;;;;1748046;28;20228;-76
2024/01/09 10:36:12;;;;;;;19.38;17.35;;;;;;;;;;1742118;28;20203;-75
2024/01/09 10:37:08;;;;;;;20.63;17.20;;;;;;;;;;1741070;28;20199;-75
2024/01/09 10:37:59;;;;;;;19.38;17.33;;;;;;;;;;1743321;28;20203;-76
2024/01/09 10:38:51;;;;;;;19.00;17.10;;;;;;;;;;1741115;28;20877;-76
2024/01/09 10:39:47;;;;;;;18.90;16.90;;;;;;;;;;1743784;28;20241;-75
2024/01/09 10:40:39;;;;;;;18.75;16.88;;;;;;;;;;1748061;28;20264;-76
2024/01/09 10:41:31;;;;;;;19.10;17.20;;;;;;;;;;1747979;28;20210;-76
2024/01/09 10:42:23;;;;;;;18.00;16.20;;;;;;;;;;1748814;28;20301;-77
2024/01/09 10:43:17;;;;;;;17.75;15.70;;;;;;;;;;1749028;28;20348;-77
2024/01/09 10:44:08;;;;;;;19.45;16.58;;;;;;;;;;1743176;28;20195;-78
2024/01/09 10:45:00;;;;;;;20.00;17.30;;;;;;;;;;1743723;28;20198;-78
2024/01/09 10:45:52;;;;;;;21.10;17.35;;;;;;;;;;1749698;28;20281;-77
2024/01/09 10:46:43;;;;;;;19.15;16.13;;;;;;;;;;1750321;28;20202;-78
2024/01/09 10:47:36;;;;;;;18.55;16.60;;;;;;;;;;1746064;28;20210;-77
2024/01/09 10:48:27;;;;;;;20.70;16.25;;;;;;;;;;1745328;28;20217;-78
2024/01/09 10:49:18;;;;;;;18.83;16.30;;;;;;;;;;1747590;28;20282;-77
2024/01/09 10:50:11;;;;;;;18.38;16.42;;;;;;;;;;1745921;28;20190;-78
2024/01/09 10:51:02;;;;;;;16.60;14.95;;;;;;;;;;1747587;28;20198;-77
2024/01/09 10:51:55;;;;;;;20.50;17.13;;;;;;;;;;1746444;28;20254;-78
2024/01/09 10:52:48;;;;;;;17.63;15.82;;;;;;;;;;1746517;28;20217;-78
2024/01/09 10:53:40;;;;;;;17.98;16.13;;;;;;;;;;1746814;28;20191;-78
2024/01/09 10:54:33;;;;;;;18.17;15.95;;;;;;;;;;1746930;28;20218;-78
2024/01/09 10:55:26;;;;;;;19.65;16.45;;;;;;;;;;1748595;28;20194;-78
2024/01/09 10:56:19;;;;;;;17.48;15.32;;;;;;;;;;1746357;28;20217;-76
2024/01/09 10:57:11;;;;;;;18.27;16.23;;;;;;;;;;1747430;28;20207;-77
2024/01/09 10:58:04;;;;;;;20.05;16.13;;;;;;;;;;1746827;28;20623;-75
2024/01/09 10:58:56;;;;;;;18.13;16.25;;;;;;;;;;1740998;28;20580;-76
2024/01/09 10:59:48;;;;;;;18.27;16.27;;;;;;;;;;1740584;28;20234;-76
2024/01/09 11:00:41;;;;;;;18.95;16.98;;;;;;;;;;1740996;28;20206;-76
2024/01/09 11:01:32;;;;;;;18.45;15.25;;;;;;;;;;1741070;28;20208;-76